sensor_id;sensor_type;location;lat;lon;timestamp;P1;durP1;ratioP1;P2;durP2;ratioP2
20611;SDS011;10465;42.686;23.364;2022-12-13T00:00:03;7.78;;;4.93;;
20611;SDS011;10465;42.686;23.364;2022-12-13T00:02:29;7.72;;;4.88;;
20611;SDS011;10465;42.686;23.364;2022-12-13T00:04:55;7.57;;;4.82;;
20611;SDS011;10465;42.686;23.364;2022-12-13T00:07:21;7.32;;;4.65;;
20611;SDS011;10465;42.686;23.364;2022-12-13T00:09:46;7.18;;;5.00;;
20611;SDS011;10465;42.686;23.364;2022-12-13T00:12:12;6.93;;;4.25;;
20611;SDS011;10465;42.686;23.364;2022-12-13T00:14:37;7.93;;;4.57;;
20611;SDS011;10465;42.686;23.364;2022-12-13T00:17:03;7.70;;;4.88;;
20611;SDS011;10465;42.686;23.364;2022-12-13T00:19:28;7.53;;;4.38;;
20611;SDS011;10465;42.686;23.364;2022-12-13T00:21:54;8.52;;;4.45;;
20611;SDS011;10465;42.686;23.364;2022-12-13T00:24:19;7.75;;;4.53;;
20611;SDS011;10465;42.686;23.364;2022-12-13T00:26:45;8.40;;;4.50;;
20611;SDS011;10465;42.686;23.364;2022-12-13T00:29:11;7.20;;;4.57;;
20611;SDS011;10465;42.686;23.364;2022-12-13T00:31:37;7.05;;;4.50;;
20611;SDS011;10465;42.686;23.364;2022-12-13T00:34:02;8.13;;;4.35;;
20611;SDS011;10465;42.686;23.364;2022-12-13T00:36:27;7.32;;;4.75;;
20611;SDS011;10465;42.686;23.364;2022-12-13T00:38:53;8.38;;;5.22;;
20611;SDS011;10465;42.686;23.364;2022-12-13T00:41:25;8.32;;;5.93;;
20611;SDS011;10465;42.686;23.364;2022-12-13T00:43:55;7.80;;;4.90;;
20611;SDS011;10465;42.686;23.364;2022-12-13T00:46:21;8.35;;;5.00;;
20611;SDS011;10465;42.686;23.364;2022-12-13T00:48:47;9.48;;;5.70;;
20611;SDS011;10465;42.686;23.364;2022-12-13T00:51:17;8.02;;;5.32;;
20611;SDS011;10465;42.686;23.364;2022-12-13T00:53:43;9.20;;;5.32;;
20611;SDS011;10465;42.686;23.364;2022-12-13T00:56:13;8.27;;;5.57;;
20611;SDS011;10465;42.686;23.364;2022-12-13T00:58:40;9.00;;;5.35;;
20611;SDS011;10465;42.686;23.364;2022-12-13T01:01:07;8.65;;;5.85;;
20611;SDS011;10465;42.686;23.364;2022-12-13T01:03:35;7.97;;;5.18;;
20611;SDS011;10465;42.686;23.364;2022-12-13T01:06:00;7.15;;;5.03;;
20611;SDS011;10465;42.686;23.364;2022-12-13T01:08:26;9.07;;;5.40;;
20611;SDS011;10465;42.686;23.364;2022-12-13T01:10:53;8.60;;;5.40;;
20611;SDS011;10465;42.686;23.364;2022-12-13T01:13:19;9.30;;;5.43;;
20611;SDS011;10465;42.686;23.364;2022-12-13T01:15:45;10.27;;;5.72;;
20611;SDS011;10465;42.686;23.364;2022-12-13T01:18:12;7.68;;;5.75;;
20611;SDS011;10465;42.686;23.364;2022-12-13T01:20:38;7.65;;;5.35;;
20611;SDS011;10465;42.686;23.364;2022-12-13T01:23:04;11.73;;;5.68;;
20611;SDS011;10465;42.686;23.364;2022-12-13T01:25:30;9.77;;;6.30;;
20611;SDS011;10465;42.686;23.364;2022-12-13T01:27:57;9.68;;;5.88;;
20611;SDS011;10465;42.686;23.364;2022-12-13T01:30:24;10.57;;;6.63;;
20611;SDS011;10465;42.686;23.364;2022-12-13T01:32:50;10.95;;;6.18;;
20611;SDS011;10465;42.686;23.364;2022-12-13T01:35:15;10.02;;;6.07;;
20611;SDS011;10465;42.686;23.364;2022-12-13T01:37:41;9.93;;;6.28;;
20611;SDS011;10465;42.686;23.364;2022-12-13T01:40:07;10.40;;;6.30;;
20611;SDS011;10465;42.686;23.364;2022-12-13T01:42:36;10.35;;;6.55;;
20611;SDS011;10465;42.686;23.364;2022-12-13T01:45:04;8.73;;;5.55;;
20611;SDS011;10465;42.686;23.364;2022-12-13T01:47:52;8.82;;;5.47;;
20611;SDS011;10465;42.686;23.364;2022-12-13T01:50:22;10.38;;;6.40;;
20611;SDS011;10465;42.686;23.364;2022-12-13T01:52:54;9.00;;;6.05;;
20611;SDS011;10465;42.686;23.364;2022-12-13T01:55:21;9.32;;;6.13;;
20611;SDS011;10465;42.686;23.364;2022-12-13T01:57:49;10.13;;;5.82;;
20611;SDS011;10465;42.686;23.364;2022-12-13T02:00:17;8.70;;;6.32;;
20611;SDS011;10465;42.686;23.364;2022-12-13T02:02:43;7.75;;;5.57;;
20611;SDS011;10465;42.686;23.364;2022-12-13T02:05:22;11.18;;;6.43;;
20611;SDS011;10465;42.686;23.364;2022-12-13T02:07:52;9.73;;;6.28;;
20611;SDS011;10465;42.686;23.364;2022-12-13T02:10:17;11.32;;;7.03;;
20611;SDS011;10465;42.686;23.364;2022-12-13T02:12:43;11.45;;;7.00;;
20611;SDS011;10465;42.686;23.364;2022-12-13T02:15:10;8.90;;;6.05;;
20611;SDS011;10465;42.686;23.364;2022-12-13T02:17:47;11.07;;;7.05;;
20611;SDS011;10465;42.686;23.364;2022-12-13T02:23:33;9.40;;;5.95;;
20611;SDS011;10465;42.686;23.364;2022-12-13T02:26:28;11.18;;;6.20;;
20611;SDS011;10465;42.686;23.364;2022-12-13T02:35:13;10.52;;;6.25;;
20611;SDS011;10465;42.686;23.364;2022-12-13T02:37:54;12.07;;;6.30;;
20611;SDS011;10465;42.686;23.364;2022-12-13T02:40:43;10.88;;;6.90;;
20611;SDS011;10465;42.686;23.364;2022-12-13T02:45:52;12.02;;;6.57;;
20611;SDS011;10465;42.686;23.364;2022-12-13T02:48:24;9.93;;;6.18;;
20611;SDS011;10465;42.686;23.364;2022-12-13T02:50:58;11.25;;;6.93;;
20611;SDS011;10465;42.686;23.364;2022-12-13T02:53:27;10.80;;;6.90;;
20611;SDS011;10465;42.686;23.364;2022-12-13T02:55:54;9.93;;;6.55;;
20611;SDS011;10465;42.686;23.364;2022-12-13T02:58:21;9.25;;;6.05;;
20611;SDS011;10465;42.686;23.364;2022-12-13T03:06:28;10.77;;;7.03;;
20611;SDS011;10465;42.686;23.364;2022-12-13T03:15:18;10.50;;;6.78;;
20611;SDS011;10465;42.686;23.364;2022-12-13T03:17:52;11.98;;;6.93;;
20611;SDS011;10465;42.686;23.364;2022-12-13T03:20:22;11.20;;;7.22;;
20611;SDS011;10465;42.686;23.364;2022-12-13T03:22:50;11.00;;;7.60;;
20611;SDS011;10465;42.686;23.364;2022-12-13T03:25:17;11.77;;;7.82;;
20611;SDS011;10465;42.686;23.364;2022-12-13T03:27:43;12.52;;;7.78;;
20611;SDS011;10465;42.686;23.364;2022-12-13T03:30:08;12.38;;;7.43;;
20611;SDS011;10465;42.686;23.364;2022-12-13T03:32:35;11.40;;;7.18;;
20611;SDS011;10465;42.686;23.364;2022-12-13T03:35:00;13.00;;;7.88;;
20611;SDS011;10465;42.686;23.364;2022-12-13T03:37:25;15.43;;;8.10;;
20611;SDS011;10465;42.686;23.364;2022-12-13T03:39:51;12.13;;;7.85;;
20611;SDS011;10465;42.686;23.364;2022-12-13T03:42:17;14.43;;;8.77;;
20611;SDS011;10465;42.686;23.364;2022-12-13T03:44:42;13.80;;;8.48;;
20611;SDS011;10465;42.686;23.364;2022-12-13T03:47:08;16.42;;;9.30;;
20611;SDS011;10465;42.686;23.364;2022-12-13T03:49:33;15.40;;;9.13;;
20611;SDS011;10465;42.686;23.364;2022-12-13T03:51:59;15.43;;;8.98;;
20611;SDS011;10465;42.686;23.364;2022-12-13T03:54:24;14.13;;;8.80;;
20611;SDS011;10465;42.686;23.364;2022-12-13T03:56:50;14.63;;;9.23;;
20611;SDS011;10465;42.686;23.364;2022-12-13T03:59:16;15.15;;;9.13;;
20611;SDS011;10465;42.686;23.364;2022-12-13T04:01:42;16.85;;;9.60;;
20611;SDS011;10465;42.686;23.364;2022-12-13T04:04:07;15.50;;;9.25;;
20611;SDS011;10465;42.686;23.364;2022-12-13T04:06:32;13.38;;;8.73;;
20611;SDS011;10465;42.686;23.364;2022-12-13T04:08:58;16.20;;;9.43;;
20611;SDS011;10465;42.686;23.364;2022-12-13T04:11:23;15.88;;;8.88;;
20611;SDS011;10465;42.686;23.364;2022-12-13T04:14:07;15.05;;;8.68;;
20611;SDS011;10465;42.686;23.364;2022-12-13T04:16:33;15.07;;;9.02;;
20611;SDS011;10465;42.686;23.364;2022-12-13T04:18:59;14.23;;;8.38;;
20611;SDS011;10465;42.686;23.364;2022-12-13T04:21:24;15.73;;;9.05;;
20611;SDS011;10465;42.686;23.364;2022-12-13T04:23:49;15.48;;;8.50;;
20611;SDS011;10465;42.686;23.364;2022-12-13T04:26:15;14.20;;;8.15;;
20611;SDS011;10465;42.686;23.364;2022-12-13T04:28:40;15.50;;;8.27;;
20611;SDS011;10465;42.686;23.364;2022-12-13T04:31:06;12.32;;;7.18;;
20611;SDS011;10465;42.686;23.364;2022-12-13T04:33:31;13.95;;;8.30;;
20611;SDS011;10465;42.686;23.364;2022-12-13T04:35:58;12.25;;;8.35;;
20611;SDS011;10465;42.686;23.364;2022-12-13T04:38:23;15.02;;;8.63;;
20611;SDS011;10465;42.686;23.364;2022-12-13T04:40:49;17.23;;;8.90;;
20611;SDS011;10465;42.686;23.364;2022-12-13T04:43:14;14.88;;;9.07;;
20611;SDS011;10465;42.686;23.364;2022-12-13T04:45:40;15.45;;;9.10;;
20611;SDS011;10465;42.686;23.364;2022-12-13T04:48:05;12.80;;;8.18;;
20611;SDS011;10465;42.686;23.364;2022-12-13T04:50:31;15.02;;;8.98;;
20611;SDS011;10465;42.686;23.364;2022-12-13T04:52:57;16.23;;;9.65;;
20611;SDS011;10465;42.686;23.364;2022-12-13T04:55:22;13.38;;;8.88;;
20611;SDS011;10465;42.686;23.364;2022-12-13T04:57:47;15.02;;;8.40;;
20611;SDS011;10465;42.686;23.364;2022-12-13T05:00:13;15.65;;;8.82;;
20611;SDS011;10465;42.686;23.364;2022-12-13T05:02:39;17.20;;;9.85;;
20611;SDS011;10465;42.686;23.364;2022-12-13T05:05:06;16.02;;;9.25;;
20611;SDS011;10465;42.686;23.364;2022-12-13T05:07:33;19.25;;;10.48;;
20611;SDS011;10465;42.686;23.364;2022-12-13T05:09:59;19.40;;;9.73;;
20611;SDS011;10465;42.686;23.364;2022-12-13T05:12:24;16.02;;;8.93;;
20611;SDS011;10465;42.686;23.364;2022-12-13T05:14:51;15.48;;;9.80;;
20611;SDS011;10465;42.686;23.364;2022-12-13T05:17:17;18.08;;;9.85;;
20611;SDS011;10465;42.686;23.364;2022-12-13T05:19:42;15.70;;;8.73;;
20611;SDS011;10465;42.686;23.364;2022-12-13T05:22:08;16.42;;;8.68;;
20611;SDS011;10465;42.686;23.364;2022-12-13T05:24:40;15.80;;;9.88;;
20611;SDS011;10465;42.686;23.364;2022-12-13T05:27:06;14.98;;;9.52;;
20611;SDS011;10465;42.686;23.364;2022-12-13T05:29:32;17.05;;;9.77;;
20611;SDS011;10465;42.686;23.364;2022-12-13T05:31:58;17.52;;;9.75;;
20611;SDS011;10465;42.686;23.364;2022-12-13T05:34:23;16.85;;;9.75;;
20611;SDS011;10465;42.686;23.364;2022-12-13T05:36:49;15.40;;;9.52;;
20611;SDS011;10465;42.686;23.364;2022-12-13T05:39:14;16.45;;;9.65;;
20611;SDS011;10465;42.686;23.364;2022-12-13T05:41:40;16.10;;;9.82;;
20611;SDS011;10465;42.686;23.364;2022-12-13T05:44:08;16.30;;;9.65;;
20611;SDS011;10465;42.686;23.364;2022-12-13T05:46:34;18.17;;;9.68;;
20611;SDS011;10465;42.686;23.364;2022-12-13T05:49:00;16.88;;;10.05;;
20611;SDS011;10465;42.686;23.364;2022-12-13T05:51:26;18.38;;;10.18;;
20611;SDS011;10465;42.686;23.364;2022-12-13T05:53:52;16.13;;;10.18;;
20611;SDS011;10465;42.686;23.364;2022-12-13T05:56:17;19.48;;;9.95;;
20611;SDS011;10465;42.686;23.364;2022-12-13T05:58:43;16.92;;;10.00;;
20611;SDS011;10465;42.686;23.364;2022-12-13T06:01:09;15.70;;;9.23;;
20611;SDS011;10465;42.686;23.364;2022-12-13T06:03:37;15.88;;;9.80;;
20611;SDS011;10465;42.686;23.364;2022-12-13T06:06:03;16.48;;;9.65;;
20611;SDS011;10465;42.686;23.364;2022-12-13T06:08:30;15.25;;;9.32;;
20611;SDS011;10465;42.686;23.364;2022-12-13T06:10:56;14.90;;;9.13;;
20611;SDS011;10465;42.686;23.364;2022-12-13T06:13:23;15.85;;;9.68;;
20611;SDS011;10465;42.686;23.364;2022-12-13T06:15:49;15.70;;;9.70;;
20611;SDS011;10465;42.686;23.364;2022-12-13T06:18:14;17.73;;;9.82;;
20611;SDS011;10465;42.686;23.364;2022-12-13T06:20:40;15.88;;;8.43;;
20611;SDS011;10465;42.686;23.364;2022-12-13T06:23:06;15.57;;;9.48;;
20611;SDS011;10465;42.686;23.364;2022-12-13T06:25:31;14.23;;;8.82;;
20611;SDS011;10465;42.686;23.364;2022-12-13T06:27:56;15.23;;;9.20;;
20611;SDS011;10465;42.686;23.364;2022-12-13T06:30:22;14.35;;;8.73;;
20611;SDS011;10465;42.686;23.364;2022-12-13T06:32:48;19.33;;;10.40;;
20611;SDS011;10465;42.686;23.364;2022-12-13T06:35:14;17.17;;;10.27;;
20611;SDS011;10465;42.686;23.364;2022-12-13T06:37:40;17.38;;;10.18;;
20611;SDS011;10465;42.686;23.364;2022-12-13T06:40:06;18.75;;;9.90;;
20611;SDS011;10465;42.686;23.364;2022-12-13T06:42:31;16.38;;;9.77;;
20611;SDS011;10465;42.686;23.364;2022-12-13T06:44:57;18.27;;;10.07;;
20611;SDS011;10465;42.686;23.364;2022-12-13T06:47:23;15.60;;;8.80;;
20611;SDS011;10465;42.686;23.364;2022-12-13T06:49:49;17.15;;;10.25;;
20611;SDS011;10465;42.686;23.364;2022-12-13T06:52:15;15.93;;;9.70;;
20611;SDS011;10465;42.686;23.364;2022-12-13T06:54:41;17.50;;;10.38;;
20611;SDS011;10465;42.686;23.364;2022-12-13T06:57:07;18.23;;;10.07;;
20611;SDS011;10465;42.686;23.364;2022-12-13T06:59:33;16.83;;;9.55;;
20611;SDS011;10465;42.686;23.364;2022-12-13T07:01:59;19.73;;;9.95;;
20611;SDS011;10465;42.686;23.364;2022-12-13T07:04:24;18.42;;;10.13;;
20611;SDS011;10465;42.686;23.364;2022-12-13T07:06:50;17.48;;;10.32;;
20611;SDS011;10465;42.686;23.364;2022-12-13T07:09:15;18.42;;;9.57;;
20611;SDS011;10465;42.686;23.364;2022-12-13T07:11:40;15.13;;;10.00;;
20611;SDS011;10465;42.686;23.364;2022-12-13T07:14:06;16.67;;;10.13;;
20611;SDS011;10465;42.686;23.364;2022-12-13T07:16:33;15.68;;;9.55;;
20611;SDS011;10465;42.686;23.364;2022-12-13T07:18:59;16.83;;;9.52;;
20611;SDS011;10465;42.686;23.364;2022-12-13T07:21:25;18.23;;;9.77;;
20611;SDS011;10465;42.686;23.364;2022-12-13T07:23:51;20.63;;;11.15;;
20611;SDS011;10465;42.686;23.364;2022-12-13T07:26:17;18.80;;;10.85;;
20611;SDS011;10465;42.686;23.364;2022-12-13T07:28:43;17.88;;;10.52;;
20611;SDS011;10465;42.686;23.364;2022-12-13T07:31:09;17.33;;;10.95;;
20611;SDS011;10465;42.686;23.364;2022-12-13T07:33:35;17.63;;;11.05;;
20611;SDS011;10465;42.686;23.364;2022-12-13T07:36:11;18.55;;;11.00;;
20611;SDS011;10465;42.686;23.364;2022-12-13T07:38:39;18.25;;;9.75;;
20611;SDS011;10465;42.686;23.364;2022-12-13T07:41:05;19.23;;;11.30;;
20611;SDS011;10465;42.686;23.364;2022-12-13T07:43:31;19.73;;;10.95;;
20611;SDS011;10465;42.686;23.364;2022-12-13T07:45:57;17.15;;;10.35;;
20611;SDS011;10465;42.686;23.364;2022-12-13T07:48:24;17.08;;;10.77;;
20611;SDS011;10465;42.686;23.364;2022-12-13T07:50:50;18.60;;;11.85;;
20611;SDS011;10465;42.686;23.364;2022-12-13T07:53:16;21.95;;;12.60;;
20611;SDS011;10465;42.686;23.364;2022-12-13T07:55:42;19.02;;;11.50;;
20611;SDS011;10465;42.686;23.364;2022-12-13T07:58:09;23.20;;;12.30;;
20611;SDS011;10465;42.686;23.364;2022-12-13T08:00:36;21.60;;;12.63;;
20611;SDS011;10465;42.686;23.364;2022-12-13T08:03:03;20.10;;;12.00;;
20611;SDS011;10465;42.686;23.364;2022-12-13T08:05:30;20.65;;;11.40;;
20611;SDS011;10465;42.686;23.364;2022-12-13T08:07:56;19.13;;;11.48;;
20611;SDS011;10465;42.686;23.364;2022-12-13T08:10:21;19.95;;;11.02;;
20611;SDS011;10465;42.686;23.364;2022-12-13T08:12:47;23.52;;;12.13;;
20611;SDS011;10465;42.686;23.364;2022-12-13T08:15:14;20.17;;;11.45;;
20611;SDS011;10465;42.686;23.364;2022-12-13T08:17:39;24.25;;;12.77;;
20611;SDS011;10465;42.686;23.364;2022-12-13T08:20:05;17.80;;;11.27;;
20611;SDS011;10465;42.686;23.364;2022-12-13T08:22:31;20.55;;;11.65;;
20611;SDS011;10465;42.686;23.364;2022-12-13T08:24:56;19.30;;;11.02;;
20611;SDS011;10465;42.686;23.364;2022-12-13T08:27:21;19.33;;;11.57;;
20611;SDS011;10465;42.686;23.364;2022-12-13T08:29:47;17.52;;;10.68;;
20611;SDS011;10465;42.686;23.364;2022-12-13T08:32:12;20.13;;;11.07;;
20611;SDS011;10465;42.686;23.364;2022-12-13T08:34:38;14.20;;;8.95;;
20611;SDS011;10465;42.686;23.364;2022-12-13T08:37:05;14.75;;;9.32;;
20611;SDS011;10465;42.686;23.364;2022-12-13T08:39:31;15.48;;;9.55;;
20611;SDS011;10465;42.686;23.364;2022-12-13T08:42:01;16.67;;;8.82;;
20611;SDS011;10465;42.686;23.364;2022-12-13T08:44:28;15.85;;;9.38;;
20611;SDS011;10465;42.686;23.364;2022-12-13T08:46:54;15.85;;;9.20;;
20611;SDS011;10465;42.686;23.364;2022-12-13T08:49:19;13.20;;;8.90;;
20611;SDS011;10465;42.686;23.364;2022-12-13T08:51:45;15.65;;;9.38;;
20611;SDS011;10465;42.686;23.364;2022-12-13T08:54:10;17.05;;;9.65;;
20611;SDS011;10465;42.686;23.364;2022-12-13T08:56:36;15.88;;;9.32;;
20611;SDS011;10465;42.686;23.364;2022-12-13T08:59:01;14.20;;;9.00;;
20611;SDS011;10465;42.686;23.364;2022-12-13T09:01:27;14.05;;;8.20;;
20611;SDS011;10465;42.686;23.364;2022-12-13T09:03:54;13.50;;;8.77;;
20611;SDS011;10465;42.686;23.364;2022-12-13T09:06:20;13.02;;;8.48;;
20611;SDS011;10465;42.686;23.364;2022-12-13T09:08:45;10.95;;;7.63;;
20611;SDS011;10465;42.686;23.364;2022-12-13T09:11:11;13.77;;;8.18;;
20611;SDS011;10465;42.686;23.364;2022-12-13T09:13:37;12.23;;;7.97;;
20611;SDS011;10465;42.686;23.364;2022-12-13T09:16:08;14.20;;;9.20;;
20611;SDS011;10465;42.686;23.364;2022-12-13T09:18:37;11.32;;;7.60;;
20611;SDS011;10465;42.686;23.364;2022-12-13T09:21:06;12.13;;;8.32;;
20611;SDS011;10465;42.686;23.364;2022-12-13T09:23:33;11.65;;;7.22;;
20611;SDS011;10465;42.686;23.364;2022-12-13T09:25:59;10.98;;;7.40;;
20611;SDS011;10465;42.686;23.364;2022-12-13T09:28:25;11.60;;;8.23;;
20611;SDS011;10465;42.686;23.364;2022-12-13T09:30:51;12.07;;;8.10;;
20611;SDS011;10465;42.686;23.364;2022-12-13T09:33:17;12.73;;;8.45;;
20611;SDS011;10465;42.686;23.364;2022-12-13T09:35:42;11.18;;;7.60;;
20611;SDS011;10465;42.686;23.364;2022-12-13T09:38:08;12.18;;;8.02;;
20611;SDS011;10465;42.686;23.364;2022-12-13T09:40:34;14.48;;;9.18;;
20611;SDS011;10465;42.686;23.364;2022-12-13T09:43:02;15.10;;;9.57;;
20611;SDS011;10465;42.686;23.364;2022-12-13T09:45:28;16.98;;;10.63;;
20611;SDS011;10465;42.686;23.364;2022-12-13T09:47:54;14.85;;;10.70;;
20611;SDS011;10465;42.686;23.364;2022-12-13T09:50:23;19.23;;;10.98;;
20611;SDS011;10465;42.686;23.364;2022-12-13T09:52:52;17.02;;;10.15;;
20611;SDS011;10465;42.686;23.364;2022-12-13T09:55:25;17.38;;;9.93;;
20611;SDS011;10465;42.686;23.364;2022-12-13T09:57:56;12.40;;;8.55;;
20611;SDS011;10465;42.686;23.364;2022-12-13T10:00:26;13.00;;;8.48;;
20611;SDS011;10465;42.686;23.364;2022-12-13T10:02:57;15.55;;;9.25;;
20611;SDS011;10465;42.686;23.364;2022-12-13T10:05:28;17.38;;;10.52;;
20611;SDS011;10465;42.686;23.364;2022-12-13T10:08:00;15.23;;;10.00;;
20611;SDS011;10465;42.686;23.364;2022-12-13T10:10:30;16.02;;;9.05;;
20611;SDS011;10465;42.686;23.364;2022-12-13T10:12:58;13.25;;;9.18;;
20611;SDS011;10465;42.686;23.364;2022-12-13T10:15:35;12.98;;;9.23;;
20611;SDS011;10465;42.686;23.364;2022-12-13T10:18:05;13.55;;;9.30;;
20611;SDS011;10465;42.686;23.364;2022-12-13T10:20:34;17.35;;;10.57;;
20611;SDS011;10465;42.686;23.364;2022-12-13T10:23:01;15.90;;;9.32;;
20611;SDS011;10465;42.686;23.364;2022-12-13T10:25:43;14.63;;;7.90;;
20611;SDS011;10465;42.686;23.364;2022-12-13T10:28:11;13.57;;;8.48;;
20611;SDS011;10465;42.686;23.364;2022-12-13T10:30:40;12.05;;;8.43;;
20611;SDS011;10465;42.686;23.364;2022-12-13T10:33:09;13.07;;;8.32;;
20611;SDS011;10465;42.686;23.364;2022-12-13T10:35:45;12.80;;;9.00;;
20611;SDS011;10465;42.686;23.364;2022-12-13T10:38:28;12.10;;;8.35;;
20611;SDS011;10465;42.686;23.364;2022-12-13T10:40:55;16.05;;;9.60;;
20611;SDS011;10465;42.686;23.364;2022-12-13T10:43:22;13.20;;;8.80;;
20611;SDS011;10465;42.686;23.364;2022-12-13T10:51:00;14.15;;;8.60;;
20611;SDS011;10465;42.686;23.364;2022-12-13T10:53:30;14.48;;;9.10;;
20611;SDS011;10465;42.686;23.364;2022-12-13T10:55:58;15.90;;;9.52;;
20611;SDS011;10465;42.686;23.364;2022-12-13T10:58:32;16.70;;;9.63;;
20611;SDS011;10465;42.686;23.364;2022-12-13T11:01:07;17.10;;;10.40;;
20611;SDS011;10465;42.686;23.364;2022-12-13T11:03:56;16.20;;;10.18;;
20611;SDS011;10465;42.686;23.364;2022-12-13T11:06:24;18.20;;;10.48;;
20611;SDS011;10465;42.686;23.364;2022-12-13T11:08:51;16.85;;;10.48;;
20611;SDS011;10465;42.686;23.364;2022-12-13T11:11:17;16.30;;;10.45;;
20611;SDS011;10465;42.686;23.364;2022-12-13T11:13:53;15.57;;;10.75;;
20611;SDS011;10465;42.686;23.364;2022-12-13T11:16:22;19.05;;;11.38;;
20611;SDS011;10465;42.686;23.364;2022-12-13T11:18:55;20.75;;;12.13;;
20611;SDS011;10465;42.686;23.364;2022-12-13T11:21:33;16.98;;;10.75;;
20611;SDS011;10465;42.686;23.364;2022-12-13T11:24:05;14.77;;;9.77;;
20611;SDS011;10465;42.686;23.364;2022-12-13T11:26:33;14.90;;;10.57;;
20611;SDS011;10465;42.686;23.364;2022-12-13T11:34:44;17.90;;;10.68;;
20611;SDS011;10465;42.686;23.364;2022-12-13T11:37:19;18.42;;;10.35;;
20611;SDS011;10465;42.686;23.364;2022-12-13T11:40:13;16.02;;;10.68;;
20611;SDS011;10465;42.686;23.364;2022-12-13T11:42:46;15.13;;;10.25;;
20611;SDS011;10465;42.686;23.364;2022-12-13T11:48:09;16.92;;;10.55;;
20611;SDS011;10465;42.686;23.364;2022-12-13T11:50:47;18.95;;;12.02;;
20611;SDS011;10465;42.686;23.364;2022-12-13T12:01:21;15.35;;;10.32;;
20611;SDS011;10465;42.686;23.364;2022-12-13T12:03:56;15.18;;;10.55;;
20611;SDS011;10465;42.686;23.364;2022-12-13T12:06:31;12.80;;;8.85;;
20611;SDS011;10465;42.686;23.364;2022-12-13T12:08:59;19.65;;;11.82;;
20611;SDS011;10465;42.686;23.364;2022-12-13T12:11:31;20.92;;;12.65;;
20611;SDS011;10465;42.686;23.364;2022-12-13T12:14:11;20.60;;;12.40;;
20611;SDS011;10465;42.686;23.364;2022-12-13T12:16:52;15.68;;;9.38;;
20611;SDS011;10465;42.686;23.364;2022-12-13T12:19:22;12.55;;;8.60;;
20611;SDS011;10465;42.686;23.364;2022-12-13T12:21:55;15.80;;;10.43;;
20611;SDS011;10465;42.686;23.364;2022-12-13T12:36:28;15.55;;;10.07;;
20611;SDS011;10465;42.686;23.364;2022-12-13T12:38:58;17.00;;;11.75;;
20611;SDS011;10465;42.686;23.364;2022-12-13T12:50:33;26.40;;;15.70;;
20611;SDS011;10465;42.686;23.364;2022-12-13T12:53:12;18.70;;;11.68;;
20611;SDS011;10465;42.686;23.364;2022-12-13T12:56:04;16.92;;;10.30;;
20611;SDS011;10465;42.686;23.364;2022-12-13T13:01:24;18.52;;;10.63;;
20611;SDS011;10465;42.686;23.364;2022-12-13T13:03:54;19.05;;;11.05;;
20611;SDS011;10465;42.686;23.364;2022-12-13T13:09:28;18.30;;;10.95;;
20611;SDS011;10465;42.686;23.364;2022-12-13T13:11:55;17.60;;;11.32;;
20611;SDS011;10465;42.686;23.364;2022-12-13T13:16:56;18.35;;;12.07;;
20611;SDS011;10465;42.686;23.364;2022-12-13T13:21:58;17.63;;;11.73;;
20611;SDS011;10465;42.686;23.364;2022-12-13T13:24:24;16.92;;;10.38;;
20611;SDS011;10465;42.686;23.364;2022-12-13T13:27:27;16.95;;;10.85;;
20611;SDS011;10465;42.686;23.364;2022-12-13T13:30:42;16.42;;;10.90;;
20611;SDS011;10465;42.686;23.364;2022-12-13T13:32:47;19.52;;;10.68;;
20611;SDS011;10465;42.686;23.364;2022-12-13T13:40:30;22.08;;;11.88;;
20611;SDS011;10465;42.686;23.364;2022-12-13T13:45:27;21.15;;;10.77;;
20611;SDS011;10465;42.686;23.364;2022-12-13T13:47:53;17.67;;;10.95;;
20611;SDS011;10465;42.686;23.364;2022-12-13T14:10:34;24.58;;;13.45;;
20611;SDS011;10465;42.686;23.364;2022-12-13T14:24:52;22.75;;;12.95;;
20611;SDS011;10465;42.686;23.364;2022-12-13T14:30:18;31.95;;;16.77;;
20611;SDS011;10465;42.686;23.364;2022-12-13T14:32:46;28.75;;;16.25;;
20611;SDS011;10465;42.686;23.364;2022-12-13T14:35:32;29.10;;;17.08;;
20611;SDS011;10465;42.686;23.364;2022-12-13T14:38:02;33.33;;;17.38;;
20611;SDS011;10465;42.686;23.364;2022-12-13T14:40:34;39.70;;;18.88;;
20611;SDS011;10465;42.686;23.364;2022-12-13T14:43:21;55.58;;;26.63;;
20611;SDS011;10465;42.686;23.364;2022-12-13T14:45:50;43.22;;;22.30;;
20611;SDS011;10465;42.686;23.364;2022-12-13T14:48:21;44.35;;;23.35;;
20611;SDS011;10465;42.686;23.364;2022-12-13T14:50:48;49.72;;;26.00;;
20611;SDS011;10465;42.686;23.364;2022-12-13T14:56:09;49.70;;;25.35;;
20611;SDS011;10465;42.686;23.364;2022-12-13T14:58:38;35.28;;;20.08;;
20611;SDS011;10465;42.686;23.364;2022-12-13T15:01:04;33.08;;;18.77;;
20611;SDS011;10465;42.686;23.364;2022-12-13T15:03:47;36.53;;;20.90;;
20611;SDS011;10465;42.686;23.364;2022-12-13T15:06:13;29.73;;;18.75;;
20611;SDS011;10465;42.686;23.364;2022-12-13T15:08:38;28.83;;;17.52;;
20611;SDS011;10465;42.686;23.364;2022-12-13T15:11:08;28.05;;;16.30;;
20611;SDS011;10465;42.686;23.364;2022-12-13T15:13:42;28.55;;;16.85;;
20611;SDS011;10465;42.686;23.364;2022-12-13T15:16:17;28.50;;;16.48;;
20611;SDS011;10465;42.686;23.364;2022-12-13T15:21:59;25.42;;;15.27;;
20611;SDS011;10465;42.686;23.364;2022-12-13T15:24:27;28.48;;;16.63;;
20611;SDS011;10465;42.686;23.364;2022-12-13T15:26:56;26.25;;;16.55;;
20611;SDS011;10465;42.686;23.364;2022-12-13T15:29:23;27.50;;;16.88;;
20611;SDS011;10465;42.686;23.364;2022-12-13T15:31:50;27.95;;;16.73;;
20611;SDS011;10465;42.686;23.364;2022-12-13T15:34:37;28.50;;;16.02;;
20611;SDS011;10465;42.686;23.364;2022-12-13T15:39:29;30.75;;;17.98;;
20611;SDS011;10465;42.686;23.364;2022-12-13T15:41:57;30.65;;;16.33;;
20611;SDS011;10465;42.686;23.364;2022-12-13T15:44:27;26.52;;;16.55;;
20611;SDS011;10465;42.686;23.364;2022-12-13T15:46:57;30.67;;;17.05;;
20611;SDS011;10465;42.686;23.364;2022-12-13T15:49:34;28.13;;;16.80;;
20611;SDS011;10465;42.686;23.364;2022-12-13T15:54:41;30.65;;;17.80;;
20611;SDS011;10465;42.686;23.364;2022-12-13T15:57:21;31.83;;;17.95;;
20611;SDS011;10465;42.686;23.364;2022-12-13T15:59:47;34.90;;;18.85;;
20611;SDS011;10465;42.686;23.364;2022-12-13T16:02:24;38.05;;;20.15;;
20611;SDS011;10465;42.686;23.364;2022-12-13T16:04:52;39.85;;;22.55;;
20611;SDS011;10465;42.686;23.364;2022-12-13T16:09:52;38.83;;;22.25;;
20611;SDS011;10465;42.686;23.364;2022-12-13T16:12:32;33.55;;;21.25;;
20611;SDS011;10465;42.686;23.364;2022-12-13T16:15:17;33.42;;;19.85;;
20611;SDS011;10465;42.686;23.364;2022-12-13T16:17:47;35.05;;;19.98;;
20611;SDS011;10465;42.686;23.364;2022-12-13T16:20:15;40.00;;;20.98;;
20611;SDS011;10465;42.686;23.364;2022-12-13T16:22:41;36.28;;;21.33;;
20611;SDS011;10465;42.686;23.364;2022-12-13T16:25:11;32.85;;;20.73;;
20611;SDS011;10465;42.686;23.364;2022-12-13T16:27:38;39.78;;;22.60;;
20611;SDS011;10465;42.686;23.364;2022-12-13T16:33:06;41.38;;;23.42;;
20611;SDS011;10465;42.686;23.364;2022-12-13T16:35:32;41.00;;;22.83;;
20611;SDS011;10465;42.686;23.364;2022-12-13T16:37:57;41.00;;;23.35;;
20611;SDS011;10465;42.686;23.364;2022-12-13T16:40:24;47.03;;;24.13;;
20611;SDS011;10465;42.686;23.364;2022-12-13T16:42:59;41.92;;;24.92;;